sensor_id;sensor_type;location;lat;lon;timestamp;P1;durP1;ratioP1;P2;durP2;ratioP2
71038;SDS011;58692;43.212;27.908;2023-02-13T00:02:06;8.38;;;2.65;;
71038;SDS011;58692;43.212;27.908;2023-02-13T00:04:32;8.33;;;2.50;;
71038;SDS011;58692;43.212;27.908;2023-02-13T00:06:58;6.38;;;1.98;;
71038;SDS011;58692;43.212;27.908;2023-02-13T00:09:24;5.33;;;2.07;;
71038;SDS011;58692;43.212;27.908;2023-02-13T00:11:49;4.80;;;1.75;;
71038;SDS011;58692;43.212;27.908;2023-02-13T00:14:15;6.03;;;2.10;;
71038;SDS011;58692;43.212;27.908;2023-02-13T00:16:41;4.70;;;1.80;;
71038;SDS011;58692;43.212;27.908;2023-02-13T00:19:06;5.87;;;2.00;;
71038;SDS011;58692;43.212;27.908;2023-02-13T00:21:32;4.88;;;2.03;;
71038;SDS011;58692;43.212;27.908;2023-02-13T00:23:58;8.27;;;2.40;;
71038;SDS011;58692;43.212;27.908;2023-02-13T00:26:23;5.37;;;2.07;;
71038;SDS011;58692;43.212;27.908;2023-02-13T00:28:49;5.22;;;2.13;;
71038;SDS011;58692;43.212;27.908;2023-02-13T00:31:15;5.67;;;2.10;;
71038;SDS011;58692;43.212;27.908;2023-02-13T00:33:43;6.18;;;2.05;;
71038;SDS011;58692;43.212;27.908;2023-02-13T00:36:10;5.57;;;1.87;;
71038;SDS011;58692;43.212;27.908;2023-02-13T00:38:37;4.87;;;1.87;;
71038;SDS011;58692;43.212;27.908;2023-02-13T00:41:04;7.60;;;2.47;;
71038;SDS011;58692;43.212;27.908;2023-02-13T00:43:30;4.93;;;2.00;;
71038;SDS011;58692;43.212;27.908;2023-02-13T00:45:56;4.57;;;1.90;;
71038;SDS011;58692;43.212;27.908;2023-02-13T00:48:23;5.03;;;2.10;;
71038;SDS011;58692;43.212;27.908;2023-02-13T00:50:49;5.03;;;2.10;;
71038;SDS011;58692;43.212;27.908;2023-02-13T00:53:17;4.35;;;1.98;;
71038;SDS011;58692;43.212;27.908;2023-02-13T00:55:43;6.07;;;2.15;;
71038;SDS011;58692;43.212;27.908;2023-02-13T00:58:09;5.40;;;2.20;;
71038;SDS011;58692;43.212;27.908;2023-02-13T01:00:34;5.27;;;2.20;;
71038;SDS011;58692;43.212;27.908;2023-02-13T01:03:01;5.13;;;2.10;;
71038;SDS011;58692;43.212;27.908;2023-02-13T01:05:27;5.70;;;1.97;;
71038;SDS011;58692;43.212;27.908;2023-02-13T01:07:53;6.93;;;2.22;;
71038;SDS011;58692;43.212;27.908;2023-02-13T01:10:19;6.13;;;2.30;;
71038;SDS011;58692;43.212;27.908;2023-02-13T01:12:44;6.13;;;2.40;;
71038;SDS011;58692;43.212;27.908;2023-02-13T01:15:10;7.00;;;2.70;;
71038;SDS011;58692;43.212;27.908;2023-02-13T01:17:36;5.60;;;2.08;;
71038;SDS011;58692;43.212;27.908;2023-02-13T01:20:05;5.50;;;2.35;;
71038;SDS011;58692;43.212;27.908;2023-02-13T01:22:32;7.43;;;2.40;;
71038;SDS011;58692;43.212;27.908;2023-02-13T01:24:57;6.40;;;2.30;;
71038;SDS011;58692;43.212;27.908;2023-02-13T01:27:23;7.38;;;2.63;;
71038;SDS011;58692;43.212;27.908;2023-02-13T01:29:52;6.30;;;2.10;;
71038;SDS011;58692;43.212;27.908;2023-02-13T01:32:18;6.45;;;2.30;;
71038;SDS011;58692;43.212;27.908;2023-02-13T01:34:43;6.80;;;2.37;;
71038;SDS011;58692;43.212;27.908;2023-02-13T01:37:09;6.30;;;2.30;;
71038;SDS011;58692;43.212;27.908;2023-02-13T01:39:34;7.45;;;2.47;;
71038;SDS011;58692;43.212;27.908;2023-02-13T01:42:00;6.00;;;2.40;;
71038;SDS011;58692;43.212;27.908;2023-02-13T01:47:12;6.80;;;2.38;;
71038;SDS011;58692;43.212;27.908;2023-02-13T01:49:40;5.40;;;2.20;;
71038;SDS011;58692;43.212;27.908;2023-02-13T01:52:10;7.30;;;2.50;;
71038;SDS011;58692;43.212;27.908;2023-02-13T01:54:37;7.45;;;2.38;;
71038;SDS011;58692;43.212;27.908;2023-02-13T01:57:08;6.72;;;2.63;;
71038;SDS011;58692;43.212;27.908;2023-02-13T01:59:40;6.75;;;2.30;;
71038;SDS011;58692;43.212;27.908;2023-02-13T02:02:10;7.03;;;2.50;;
71038;SDS011;58692;43.212;27.908;2023-02-13T02:04:37;6.22;;;2.40;;
71038;SDS011;58692;43.212;27.908;2023-02-13T02:07:07;5.20;;;2.20;;
71038;SDS011;58692;43.212;27.908;2023-02-13T02:09:41;6.72;;;2.33;;
71038;SDS011;58692;43.212;27.908;2023-02-13T02:12:13;7.13;;;2.55;;
71038;SDS011;58692;43.212;27.908;2023-02-13T02:14:52;5.00;;;2.10;;
71038;SDS011;58692;43.212;27.908;2023-02-13T02:17:20;5.78;;;2.40;;
71038;SDS011;58692;43.212;27.908;2023-02-13T02:22:45;5.93;;;2.42;;
71038;SDS011;58692;43.212;27.908;2023-02-13T02:25:44;5.93;;;2.40;;
71038;SDS011;58692;43.212;27.908;2023-02-13T02:28:34;5.93;;;2.27;;
71038;SDS011;58692;43.212;27.908;2023-02-13T02:34:03;9.07;;;2.55;;
71038;SDS011;58692;43.212;27.908;2023-02-13T02:39:48;5.70;;;2.60;;
71038;SDS011;58692;43.212;27.908;2023-02-13T02:42:19;5.63;;;2.40;;
71038;SDS011;58692;43.212;27.908;2023-02-13T02:44:51;6.50;;;2.67;;
71038;SDS011;58692;43.212;27.908;2023-02-13T02:58:47;8.85;;;3.00;;
71038;SDS011;58692;43.212;27.908;2023-02-13T03:01:33;6.70;;;2.72;;
71038;SDS011;58692;43.212;27.908;2023-02-13T03:04:18;6.53;;;2.25;;
71038;SDS011;58692;43.212;27.908;2023-02-13T03:07:05;6.05;;;2.40;;
71038;SDS011;58692;43.212;27.908;2023-02-13T03:09:35;7.00;;;2.43;;
71038;SDS011;58692;43.212;27.908;2023-02-13T03:12:20;6.28;;;2.40;;
71038;SDS011;58692;43.212;27.908;2023-02-13T03:15:04;6.18;;;2.50;;
71038;SDS011;58692;43.212;27.908;2023-02-13T03:17:29;6.68;;;2.85;;
71038;SDS011;58692;43.212;27.908;2023-02-13T03:20:14;6.50;;;2.50;;
71038;SDS011;58692;43.212;27.908;2023-02-13T03:23:11;5.47;;;2.30;;
71038;SDS011;58692;43.212;27.908;2023-02-13T03:28:39;8.48;;;3.28;;
71038;SDS011;58692;43.212;27.908;2023-02-13T03:31:33;11.68;;;4.95;;
71038;SDS011;58692;43.212;27.908;2023-02-13T03:34:05;12.67;;;4.80;;
71038;SDS011;58692;43.212;27.908;2023-02-13T03:45:04;14.55;;;4.88;;
71038;SDS011;58692;43.212;27.908;2023-02-13T03:47:53;10.83;;;4.87;;
71038;SDS011;58692;43.212;27.908;2023-02-13T03:50:21;11.77;;;5.10;;
71038;SDS011;58692;43.212;27.908;2023-02-13T03:55:20;16.40;;;6.47;;
71038;SDS011;58692;43.212;27.908;2023-02-13T03:58:06;16.95;;;7.25;;
71038;SDS011;58692;43.212;27.908;2023-02-13T04:00:53;14.00;;;6.23;;
71038;SDS011;58692;43.212;27.908;2023-02-13T04:06:06;14.43;;;6.38;;
71038;SDS011;58692;43.212;27.908;2023-02-13T04:08:36;14.60;;;6.85;;
71038;SDS011;58692;43.212;27.908;2023-02-13T04:13:57;14.75;;;6.72;;
71038;SDS011;58692;43.212;27.908;2023-02-13T04:16:28;13.65;;;5.82;;
71038;SDS011;58692;43.212;27.908;2023-02-13T04:18:58;15.68;;;5.82;;
71038;SDS011;58692;43.212;27.908;2023-02-13T04:21:26;18.40;;;7.37;;
71038;SDS011;58692;43.212;27.908;2023-02-13T04:23:56;20.17;;;8.07;;
71038;SDS011;58692;43.212;27.908;2023-02-13T04:26:21;20.40;;;8.60;;
71038;SDS011;58692;43.212;27.908;2023-02-13T04:28:48;18.87;;;8.73;;
71038;SDS011;58692;43.212;27.908;2023-02-13T04:31:13;25.40;;;11.02;;
71038;SDS011;58692;43.212;27.908;2023-02-13T04:33:39;20.97;;;9.33;;
71038;SDS011;58692;43.212;27.908;2023-02-13T04:36:04;21.63;;;9.37;;
71038;SDS011;58692;43.212;27.908;2023-02-13T04:38:30;21.03;;;9.77;;
71038;SDS011;58692;43.212;27.908;2023-02-13T04:40:56;26.08;;;11.57;;
71038;SDS011;58692;43.212;27.908;2023-02-13T04:43:21;26.97;;;12.30;;
71038;SDS011;58692;43.212;27.908;2023-02-13T04:45:47;28.33;;;12.37;;
71038;SDS011;58692;43.212;27.908;2023-02-13T04:48:15;26.92;;;11.77;;
71038;SDS011;58692;43.212;27.908;2023-02-13T04:50:40;24.98;;;11.45;;
71038;SDS011;58692;43.212;27.908;2023-02-13T04:53:06;21.73;;;11.10;;
71038;SDS011;58692;43.212;27.908;2023-02-13T04:55:31;22.10;;;11.20;;
71038;SDS011;58692;43.212;27.908;2023-02-13T04:57:57;21.63;;;10.30;;
71038;SDS011;58692;43.212;27.908;2023-02-13T05:00:24;19.57;;;9.77;;
71038;SDS011;58692;43.212;27.908;2023-02-13T05:02:51;17.08;;;8.57;;
71038;SDS011;58692;43.212;27.908;2023-02-13T05:05:19;16.97;;;8.60;;
71038;SDS011;58692;43.212;27.908;2023-02-13T05:07:45;17.35;;;8.52;;
71038;SDS011;58692;43.212;27.908;2023-02-13T05:10:11;19.63;;;8.73;;
71038;SDS011;58692;43.212;27.908;2023-02-13T05:12:37;19.35;;;8.93;;
71038;SDS011;58692;43.212;27.908;2023-02-13T05:15:03;20.40;;;9.60;;
71038;SDS011;58692;43.212;27.908;2023-02-13T05:17:30;24.55;;;10.38;;
71038;SDS011;58692;43.212;27.908;2023-02-13T05:19:56;23.92;;;11.52;;
71038;SDS011;58692;43.212;27.908;2023-02-13T05:22:23;21.70;;;10.07;;
71038;SDS011;58692;43.212;27.908;2023-02-13T05:25:04;26.38;;;11.23;;
71038;SDS011;58692;43.212;27.908;2023-02-13T05:27:30;24.42;;;10.65;;
71038;SDS011;58692;43.212;27.908;2023-02-13T05:29:57;22.65;;;10.77;;
71038;SDS011;58692;43.212;27.908;2023-02-13T05:32:24;26.23;;;12.00;;
71038;SDS011;58692;43.212;27.908;2023-02-13T05:34:51;28.17;;;11.38;;
71038;SDS011;58692;43.212;27.908;2023-02-13T05:37:16;22.90;;;10.77;;
71038;SDS011;58692;43.212;27.908;2023-02-13T05:39:42;23.08;;;10.13;;
71038;SDS011;58692;43.212;27.908;2023-02-13T05:42:08;21.20;;;10.27;;
71038;SDS011;58692;43.212;27.908;2023-02-13T05:44:37;29.42;;;11.50;;
71038;SDS011;58692;43.212;27.908;2023-02-13T05:47:03;24.98;;;11.95;;
71038;SDS011;58692;43.212;27.908;2023-02-13T05:49:28;29.70;;;12.13;;
71038;SDS011;58692;43.212;27.908;2023-02-13T05:51:54;27.97;;;12.13;;
71038;SDS011;58692;43.212;27.908;2023-02-13T05:54:20;29.17;;;13.00;;
71038;SDS011;58692;43.212;27.908;2023-02-13T05:56:46;26.93;;;12.53;;
71038;SDS011;58692;43.212;27.908;2023-02-13T05:59:12;27.00;;;13.32;;
71038;SDS011;58692;43.212;27.908;2023-02-13T06:01:38;25.05;;;12.13;;
71038;SDS011;58692;43.212;27.908;2023-02-13T06:04:04;23.73;;;12.17;;
71038;SDS011;58692;43.212;27.908;2023-02-13T06:06:29;25.90;;;11.65;;
71038;SDS011;58692;43.212;27.908;2023-02-13T06:08:55;24.03;;;11.67;;
71038;SDS011;58692;43.212;27.908;2023-02-13T06:11:20;30.27;;;12.15;;
71038;SDS011;58692;43.212;27.908;2023-02-13T06:13:47;23.03;;;12.73;;
71038;SDS011;58692;43.212;27.908;2023-02-13T06:16:16;23.88;;;11.98;;
71038;SDS011;58692;43.212;27.908;2023-02-13T06:19:23;23.23;;;11.50;;
71038;SDS011;58692;43.212;27.908;2023-02-13T06:21:58;21.27;;;11.00;;
71038;SDS011;58692;43.212;27.908;2023-02-13T06:24:29;23.83;;;12.55;;
71038;SDS011;58692;43.212;27.908;2023-02-13T06:27:07;28.80;;;13.23;;
71038;SDS011;58692;43.212;27.908;2023-02-13T06:29:33;24.60;;;11.90;;
71038;SDS011;58692;43.212;27.908;2023-02-13T06:31:59;25.40;;;11.98;;
71038;SDS011;58692;43.212;27.908;2023-02-13T06:34:25;23.55;;;12.30;;
71038;SDS011;58692;43.212;27.908;2023-02-13T06:36:56;25.70;;;12.77;;
71038;SDS011;58692;43.212;27.908;2023-02-13T06:39:31;27.13;;;12.57;;
71038;SDS011;58692;43.212;27.908;2023-02-13T06:42:00;25.48;;;13.00;;
71038;SDS011;58692;43.212;27.908;2023-02-13T06:44:35;24.48;;;12.40;;
71038;SDS011;58692;43.212;27.908;2023-02-13T06:47:01;23.70;;;12.30;;
71038;SDS011;58692;43.212;27.908;2023-02-13T06:49:27;30.30;;;15.23;;
71038;SDS011;58692;43.212;27.908;2023-02-13T06:51:55;24.93;;;14.07;;
71038;SDS011;58692;43.212;27.908;2023-02-13T06:54:26;25.15;;;12.93;;
71038;SDS011;58692;43.212;27.908;2023-02-13T06:56:56;23.00;;;12.43;;
71038;SDS011;58692;43.212;27.908;2023-02-13T06:59:30;23.65;;;12.77;;
71038;SDS011;58692;43.212;27.908;2023-02-13T07:01:57;27.67;;;13.80;;
71038;SDS011;58692;43.212;27.908;2023-02-13T07:04:22;29.10;;;14.60;;
71038;SDS011;58692;43.212;27.908;2023-02-13T07:06:54;31.23;;;15.00;;
71038;SDS011;58692;43.212;27.908;2023-02-13T07:09:27;28.77;;;13.83;;
71038;SDS011;58692;43.212;27.908;2023-02-13T07:12:03;30.30;;;14.35;;
71038;SDS011;58692;43.212;27.908;2023-02-13T07:14:30;26.73;;;12.70;;
71038;SDS011;58692;43.212;27.908;2023-02-13T07:17:42;23.58;;;10.95;;
71038;SDS011;58692;43.212;27.908;2023-02-13T07:20:02;22.15;;;11.20;;
71038;SDS011;58692;43.212;27.908;2023-02-13T07:22:29;25.83;;;12.73;;
71038;SDS011;58692;43.212;27.908;2023-02-13T07:25:12;21.92;;;12.35;;
71038;SDS011;58692;43.212;27.908;2023-02-13T07:28:02;29.98;;;13.45;;
71038;SDS011;58692;43.212;27.908;2023-02-13T07:30:42;31.98;;;15.50;;
71038;SDS011;58692;43.212;27.908;2023-02-13T07:33:58;25.88;;;14.93;;
71038;SDS011;58692;43.212;27.908;2023-02-13T07:36:40;31.60;;;16.40;;
71038;SDS011;58692;43.212;27.908;2023-02-13T07:43:16;24.05;;;12.50;;
71038;SDS011;58692;43.212;27.908;2023-02-13T07:56:27;16.38;;;7.53;;
71038;SDS011;58692;43.212;27.908;2023-02-13T07:59:55;17.38;;;7.80;;
71038;SDS011;58692;43.212;27.908;2023-02-13T08:02:46;15.32;;;7.53;;
71038;SDS011;58692;43.212;27.908;2023-02-13T08:05:12;30.98;;;9.15;;
71038;SDS011;58692;43.212;27.908;2023-02-13T08:07:38;18.27;;;8.97;;
71038;SDS011;58692;43.212;27.908;2023-02-13T08:10:06;20.80;;;9.18;;
71038;SDS011;58692;43.212;27.908;2023-02-13T08:12:48;19.20;;;9.27;;
71038;SDS011;58692;43.212;27.908;2023-02-13T08:15:14;21.48;;;8.48;;
71038;SDS011;58692;43.212;27.908;2023-02-13T08:17:43;17.90;;;8.60;;
71038;SDS011;58692;43.212;27.908;2023-02-13T08:20:09;18.73;;;8.25;;
71038;SDS011;58692;43.212;27.908;2023-02-13T08:22:35;18.23;;;8.60;;
71038;SDS011;58692;43.212;27.908;2023-02-13T08:25:01;23.20;;;10.48;;
71038;SDS011;58692;43.212;27.908;2023-02-13T08:27:27;18.48;;;9.80;;
71038;SDS011;58692;43.212;27.908;2023-02-13T08:29:54;23.93;;;11.37;;
71038;SDS011;58692;43.212;27.908;2023-02-13T08:32:21;23.23;;;10.85;;
71038;SDS011;58692;43.212;27.908;2023-02-13T08:34:47;16.98;;;8.75;;
71038;SDS011;58692;43.212;27.908;2023-02-13T08:37:15;17.67;;;8.50;;
71038;SDS011;58692;43.212;27.908;2023-02-13T08:39:41;18.20;;;7.90;;
71038;SDS011;58692;43.212;27.908;2023-02-13T08:42:08;15.90;;;7.03;;
71038;SDS011;58692;43.212;27.908;2023-02-13T08:44:34;20.88;;;7.53;;
71038;SDS011;58692;43.212;27.908;2023-02-13T08:47:04;20.05;;;8.32;;
71038;SDS011;58692;43.212;27.908;2023-02-13T08:49:34;13.93;;;5.87;;
71038;SDS011;58692;43.212;27.908;2023-02-13T08:52:08;12.13;;;6.03;;
71038;SDS011;58692;43.212;27.908;2023-02-13T08:54:40;13.50;;;6.03;;
71038;SDS011;58692;43.212;27.908;2023-02-13T08:57:07;13.57;;;5.93;;
71038;SDS011;58692;43.212;27.908;2023-02-13T08:59:32;14.87;;;6.53;;
71038;SDS011;58692;43.212;27.908;2023-02-13T09:01:58;248.10;;;23.85;;
71038;SDS011;58692;43.212;27.908;2023-02-13T09:04:24;16.40;;;5.90;;
71038;SDS011;58692;43.212;27.908;2023-02-13T09:06:57;17.92;;;7.00;;
71038;SDS011;58692;43.212;27.908;2023-02-13T09:09:28;43.50;;;7.68;;
71038;SDS011;58692;43.212;27.908;2023-02-13T09:11:59;11.88;;;5.43;;
71038;SDS011;58692;43.212;27.908;2023-02-13T09:14:25;16.40;;;5.70;;
71038;SDS011;58692;43.212;27.908;2023-02-13T09:16:50;14.85;;;6.18;;
71038;SDS011;58692;43.212;27.908;2023-02-13T09:19:16;15.27;;;5.90;;
71038;SDS011;58692;43.212;27.908;2023-02-13T09:21:42;13.15;;;5.82;;
71038;SDS011;58692;43.212;27.908;2023-02-13T09:24:16;13.33;;;5.90;;
71038;SDS011;58692;43.212;27.908;2023-02-13T09:26:41;13.40;;;6.50;;
71038;SDS011;58692;43.212;27.908;2023-02-13T09:29:07;15.33;;;7.27;;
71038;SDS011;58692;43.212;27.908;2023-02-13T09:31:33;20.63;;;8.55;;
71038;SDS011;58692;43.212;27.908;2023-02-13T09:33:58;15.83;;;7.27;;
71038;SDS011;58692;43.212;27.908;2023-02-13T09:36:24;15.10;;;7.10;;
71038;SDS011;58692;43.212;27.908;2023-02-13T09:38:54;13.32;;;6.28;;
71038;SDS011;58692;43.212;27.908;2023-02-13T09:41:24;15.43;;;7.03;;
71038;SDS011;58692;43.212;27.908;2023-02-13T09:44:01;14.23;;;6.28;;
71038;SDS011;58692;43.212;27.908;2023-02-13T09:47:15;17.10;;;7.32;;
71038;SDS011;58692;43.212;27.908;2023-02-13T09:49:47;12.80;;;6.90;;
71038;SDS011;58692;43.212;27.908;2023-02-13T09:52:17;10.60;;;5.63;;
71038;SDS011;58692;43.212;27.908;2023-02-13T09:54:46;12.73;;;5.95;;
71038;SDS011;58692;43.212;27.908;2023-02-13T09:59:49;11.43;;;5.60;;
71038;SDS011;58692;43.212;27.908;2023-02-13T10:02:30;15.23;;;6.60;;
71038;SDS011;58692;43.212;27.908;2023-02-13T10:08:25;12.45;;;4.88;;
71038;SDS011;58692;43.212;27.908;2023-02-13T10:13:49;11.70;;;4.77;;
71038;SDS011;58692;43.212;27.908;2023-02-13T10:19:03;12.15;;;5.30;;
71038;SDS011;58692;43.212;27.908;2023-02-13T10:21:33;13.20;;;5.70;;
71038;SDS011;58692;43.212;27.908;2023-02-13T10:24:12;11.30;;;5.70;;
71038;SDS011;58692;43.212;27.908;2023-02-13T10:26:45;13.67;;;6.43;;
71038;SDS011;58692;43.212;27.908;2023-02-13T10:29:17;11.10;;;5.78;;
71038;SDS011;58692;43.212;27.908;2023-02-13T10:32:04;13.18;;;6.75;;
71038;SDS011;58692;43.212;27.908;2023-02-13T10:34:37;14.40;;;6.88;;
71038;SDS011;58692;43.212;27.908;2023-02-13T10:37:18;13.10;;;6.40;;
71038;SDS011;58692;43.212;27.908;2023-02-13T10:39:47;16.73;;;7.47;;
71038;SDS011;58692;43.212;27.908;2023-02-13T10:47:33;15.73;;;6.82;;
71038;SDS011;58692;43.212;27.908;2023-02-13T10:50:26;14.88;;;7.00;;
71038;SDS011;58692;43.212;27.908;2023-02-13T11:02:07;20.63;;;8.48;;
71038;SDS011;58692;43.212;27.908;2023-02-13T11:04:57;16.70;;;7.38;;
71038;SDS011;58692;43.212;27.908;2023-02-13T11:07:28;18.20;;;8.30;;
71038;SDS011;58692;43.212;27.908;2023-02-13T11:10:02;16.95;;;8.63;;
71038;SDS011;58692;43.212;27.908;2023-02-13T11:12:37;14.73;;;7.40;;
71038;SDS011;58692;43.212;27.908;2023-02-13T11:15:05;15.90;;;6.87;;
71038;SDS011;58692;43.212;27.908;2023-02-13T11:17:50;15.30;;;7.15;;
71038;SDS011;58692;43.212;27.908;2023-02-13T11:20:30;13.88;;;7.35;;
71038;SDS011;58692;43.212;27.908;2023-02-13T11:22:56;13.88;;;6.82;;
71038;SDS011;58692;43.212;27.908;2023-02-13T11:26:00;13.32;;;7.45;;
71038;SDS011;58692;43.212;27.908;2023-02-13T11:28:26;18.93;;;8.70;;
71038;SDS011;58692;43.212;27.908;2023-02-13T11:31:07;16.13;;;7.90;;
71038;SDS011;58692;43.212;27.908;2023-02-13T11:33:49;16.67;;;8.20;;
71038;SDS011;58692;43.212;27.908;2023-02-13T11:36:15;13.03;;;7.13;;
71038;SDS011;58692;43.212;27.908;2023-02-13T11:41:31;17.52;;;8.25;;
71038;SDS011;58692;43.212;27.908;2023-02-13T11:44:04;16.67;;;8.48;;
71038;SDS011;58692;43.212;27.908;2023-02-13T11:49:16;17.53;;;8.40;;
71038;SDS011;58692;43.212;27.908;2023-02-13T11:51:45;19.77;;;9.27;;
71038;SDS011;58692;43.212;27.908;2023-02-13T11:57:01;17.67;;;8.48;;
71038;SDS011;58692;43.212;27.908;2023-02-13T11:59:43;16.02;;;8.50;;
71038;SDS011;58692;43.212;27.908;2023-02-13T12:04:55;11.02;;;5.75;;
71038;SDS011;58692;43.212;27.908;2023-02-13T12:07:40;11.45;;;5.43;;
71038;SDS011;58692;43.212;27.908;2023-02-13T12:10:30;11.13;;;5.45;;
71038;SDS011;58692;43.212;27.908;2023-02-13T12:15:20;12.30;;;5.33;;
71038;SDS011;58692;43.212;27.908;2023-02-13T12:20:34;12.05;;;4.88;;
71038;SDS011;58692;43.212;27.908;2023-02-13T12:42:52;11.57;;;4.60;;
71038;SDS011;58692;43.212;27.908;2023-02-13T12:45:42;10.88;;;4.82;;
71038;SDS011;58692;43.212;27.908;2023-02-13T12:59:28;10.20;;;4.38;;
71038;SDS011;58692;43.212;27.908;2023-02-13T13:04:54;9.35;;;4.40;;
71038;SDS011;58692;43.212;27.908;2023-02-13T13:12:48;10.75;;;4.50;;
71038;SDS011;58692;43.212;27.908;2023-02-13T13:18:28;8.18;;;3.42;;
71038;SDS011;58692;43.212;27.908;2023-02-13T13:21:15;7.97;;;2.90;;
71038;SDS011;58692;43.212;27.908;2023-02-13T13:26:43;12.00;;;3.30;;
71038;SDS011;58692;43.212;27.908;2023-02-13T13:29:24;10.63;;;4.10;;
71038;SDS011;58692;43.212;27.908;2023-02-13T13:31:54;12.38;;;4.30;;
71038;SDS011;58692;43.212;27.908;2023-02-13T13:34:26;10.38;;;3.30;;
71038;SDS011;58692;43.212;27.908;2023-02-13T13:36:55;9.50;;;3.63;;
71038;SDS011;58692;43.212;27.908;2023-02-13T13:39:44;5.78;;;2.10;;
71038;SDS011;58692;43.212;27.908;2023-02-13T13:50:23;6.35;;;2.10;;
71038;SDS011;58692;43.212;27.908;2023-02-13T13:58:38;5.57;;;2.03;;
71038;SDS011;58692;43.212;27.908;2023-02-13T14:04:39;4.57;;;2.05;;
71038;SDS011;58692;43.212;27.908;2023-02-13T14:07:15;7.57;;;2.58;;
71038;SDS011;58692;43.212;27.908;2023-02-13T14:09:51;6.45;;;2.30;;
71038;SDS011;58692;43.212;27.908;2023-02-13T14:15:47;7.60;;;2.20;;
71038;SDS011;58692;43.212;27.908;2023-02-13T14:20:51;10.00;;;2.73;;
71038;SDS011;58692;43.212;27.908;2023-02-13T14:28:41;7.97;;;3.13;;
71038;SDS011;58692;43.212;27.908;2023-02-13T14:31:17;7.05;;;2.30;;
71038;SDS011;58692;43.212;27.908;2023-02-13T14:33:53;7.63;;;2.78;;
71038;SDS011;58692;43.212;27.908;2023-02-13T14:36:20;7.70;;;2.92;;
71038;SDS011;58692;43.212;27.908;2023-02-13T14:38:55;6.32;;;2.30;;
71038;SDS011;58692;43.212;27.908;2023-02-13T14:47:11;9.48;;;3.08;;
71038;SDS011;58692;43.212;27.908;2023-02-13T14:49:44;7.68;;;2.90;;
71038;SDS011;58692;43.212;27.908;2023-02-13T14:54:59;9.33;;;3.10;;
71038;SDS011;58692;43.212;27.908;2023-02-13T14:57:31;10.75;;;3.10;;
71038;SDS011;58692;43.212;27.908;2023-02-13T15:00:06;7.28;;;2.70;;
71038;SDS011;58692;43.212;27.908;2023-02-13T15:02:40;8.77;;;3.03;;
71038;SDS011;58692;43.212;27.908;2023-02-13T15:05:15;10.13;;;3.97;;
71038;SDS011;58692;43.212;27.908;2023-02-13T15:07:47;9.87;;;3.67;;
71038;SDS011;58692;43.212;27.908;2023-02-13T15:10:35;15.27;;;5.63;;
71038;SDS011;58692;43.212;27.908;2023-02-13T15:13:12;12.10;;;5.05;;
71038;SDS011;58692;43.212;27.908;2023-02-13T15:15:41;13.35;;;5.55;;
71038;SDS011;58692;43.212;27.908;2023-02-13T15:18:10;13.23;;;5.22;;
71038;SDS011;58692;43.212;27.908;2023-02-13T15:20:47;16.53;;;6.00;;
71038;SDS011;58692;43.212;27.908;2023-02-13T15:23:18;13.23;;;5.50;;
71038;SDS011;58692;43.212;27.908;2023-02-13T15:25:46;10.55;;;5.00;;
71038;SDS011;58692;43.212;27.908;2023-02-13T15:28:19;16.02;;;5.97;;
71038;SDS011;58692;43.212;27.908;2023-02-13T15:33:57;15.53;;;5.33;;
71038;SDS011;58692;43.212;27.908;2023-02-13T15:36:25;13.10;;;5.50;;
71038;SDS011;58692;43.212;27.908;2023-02-13T15:38:58;12.55;;;4.82;;
71038;SDS011;58692;43.212;27.908;2023-02-13T15:41:26;12.43;;;5.30;;
71038;SDS011;58692;43.212;27.908;2023-02-13T15:43:57;16.15;;;6.05;;
71038;SDS011;58692;43.212;27.908;2023-02-13T15:46:24;15.77;;;6.70;;
71038;SDS011;58692;43.212;27.908;2023-02-13T15:48:54;16.90;;;6.05;;
71038;SDS011;58692;43.212;27.908;2023-02-13T15:51:24;12.43;;;5.53;;
71038;SDS011;58692;43.212;27.908;2023-02-13T15:53:57;12.90;;;5.55;;
71038;SDS011;58692;43.212;27.908;2023-02-13T15:56:29;13.25;;;5.78;;
71038;SDS011;58692;43.212;27.908;2023-02-13T15:58:56;14.07;;;6.00;;
71038;SDS011;58692;43.212;27.908;2023-02-13T16:01:24;15.70;;;5.68;;
71038;SDS011;58692;43.212;27.908;2023-02-13T16:03:53;13.75;;;6.15;;
71038;SDS011;58692;43.212;27.908;2023-02-13T16:06:26;16.13;;;5.40;;
71038;SDS011;58692;43.212;27.908;2023-02-13T16:08:57;14.30;;;5.90;;
71038;SDS011;58692;43.212;27.908;2023-02-13T16:13:57;15.50;;;6.72;;
71038;SDS011;58692;43.212;27.908;2023-02-13T16:16:28;19.05;;;8.00;;
71038;SDS011;58692;43.212;27.908;2023-02-13T16:19:04;16.30;;;7.30;;
71038;SDS011;58692;43.212;27.908;2023-02-13T16:22:05;18.77;;;6.93;;
71038;SDS011;58692;43.212;27.908;2023-02-13T16:25:32;21.30;;;7.13;;
71038;SDS011;58692;43.212;27.908;2023-02-13T16:28:03;20.65;;;7.80;;
71038;SDS011;58692;43.212;27.908;2023-02-13T16:31:14;17.23;;;6.97;;
71038;SDS011;58692;43.212;27.908;2023-02-13T16:33:54;15.18;;;6.97;;
71038;SDS011;58692;43.212;27.908;2023-02-13T16:36:28;20.10;;;7.87;;
71038;SDS011;58692;43.212;27.908;2023-02-13T16:38:54;17.00;;;8.25;;
71038;SDS011;58692;43.212;27.908;2023-02-13T16:43:58;26.23;;;12.50;;
71038;SDS011;58692;43.212;27.908;2023-02-13T16:46:33;27.25;;;14.23;;
71038;SDS011;58692;43.212;27.908;2023-02-13T16:49:00;31.17;;;15.30;;
71038;SDS011;58692;43.212;27.908;2023-02-13T16:51:33;34.15;;;14.27;;
71038;SDS011;58692;43.212;27.908;2023-02-13T16:54:04;31.48;;;14.35;;
71038;SDS011;58692;43.212;27.908;2023-02-13T16:56:54;35.03;;;15.00;;
71038;SDS011;58692;43.212;27.908;2023-02-13T17:02:11;32.20;;;14.50;;
71038;SDS011;58692;43.212;27.908;2023-02-13T17:04:37;25.45;;;13.45;;
71038;SDS011;58692;43.212;27.908;2023-02-13T17:07:03;29.20;;;13.30;;
71038;SDS011;58692;43.212;27.908;2023-02-13T17:09:35;28.52;;;14.50;;
71038;SDS011;58692;43.212;27.908;2023-02-13T17:12:01;28.37;;;14.87;;
71038;SDS011;58692;43.212;27.908;2023-02-13T17:14:26;30.17;;;15.40;;
71038;SDS011;58692;43.212;27.908;2023-02-13T17:16:52;30.15;;;14.55;;
71038;SDS011;58692;43.212;27.908;2023-02-13T17:19:17;29.20;;;14.67;;
71038;SDS011;58692;43.212;27.908;2023-02-13T17:21:43;29.20;;;14.68;;
71038;SDS011;58692;43.212;27.908;2023-02-13T17:24:11;27.13;;;13.37;;
71038;SDS011;58692;43.212;27.908;2023-02-13T17:26:41;26.92;;;13.68;;
71038;SDS011;58692;43.212;27.908;2023-02-13T17:29:07;26.10;;;13.85;;
71038;SDS011;58692;43.212;27.908;2023-02-13T17:31:33;31.47;;;14.07;;
71038;SDS011;58692;43.212;27.908;2023-02-13T17:33:59;34.42;;;14.13;;
71038;SDS011;58692;43.212;27.908;2023-02-13T17:36:24;26.50;;;12.93;;
71038;SDS011;58692;43.212;27.908;2023-02-13T17:38:50;28.70;;;13.13;;
71038;SDS011;58692;43.212;27.908;2023-02-13T17:41:15;30.37;;;14.00;;
71038;SDS011;58692;43.212;27.908;2023-02-13T17:43:41;22.88;;;12.02;;
71038;SDS011;58692;43.212;27.908;2023-02-13T17:46:07;26.87;;;12.93;;
71038;SDS011;58692;43.212;27.908;2023-02-13T17:48:32;27.90;;;13.67;;
71038;SDS011;58692;43.212;27.908;2023-02-13T17:50:58;36.22;;;15.10;;
71038;SDS011;58692;43.212;27.908;2023-02-13T17:53:24;32.50;;;13.17;;
71038;SDS011;58692;43.212;27.908;2023-02-13T17:55:54;30.02;;;14.75;;
71038;SDS011;58692;43.212;27.908;2023-02-13T17:58:20;31.17;;;14.63;;
71038;SDS011;58692;43.212;27.908;2023-02-13T18:00:46;30.92;;;14.60;;